Terminal Aerodrome Forecast
Issued by NWS

Home | Current Version | Previous Version | Text Only | Print | Product List | Glossary On
Versions: 1 2 3 4 5 6 7 8 9 10 11 12
000
FTUS42 KTAE 221731
TAFECP
TAF
KECP 221731Z 2218/2318 29005KT P6SM VCTS BKN040CB
     FM222200 21009KT P6SM SCT200
     FM231300 25005KT P6SM FEW025=

USA.gov is the U.S. government's official web portal to all federal, state and local government web resources and services.